sim
Sign-in with your pilot id or email,
or register
Callsign
Passwort

Schedule Details

Flight Number: OEO8652
Departure: Zurich Airport (LSZH) at 14:50
Arrival: Geneva International Airport (LSGG) at 16:00

Weather Information
Getting current METAR information for LSZH 101920Z VRB01KT 9999 SCT075 13/03 Q1012 NOSIG
Getting current METAR information for LSGG 101920Z 24004KT 200V280 CAVOK 12/03 Q1013 NOSIG

Schedule Frequency

Route Map